sensor_id;sensor_type;location;lat;lon;timestamp;pressure;altitude;pressure_sealevel;temperature
66403;BMP180;53212;52.112;5.144;2022-12-17T00:00:39;102185.60;;;-0.70
66403;BMP180;53212;52.112;5.144;2022-12-17T00:03:23;102182.80;;;-0.70
66403;BMP180;53212;52.112;5.144;2022-12-17T00:06:07;102184.40;;;-0.70
66403;BMP180;53212;52.112;5.144;2022-12-17T00:08:51;102186.60;;;-0.70
66403;BMP180;53212;52.112;5.144;2022-12-17T00:11:35;102181.00;;;-0.60
66403;BMP180;53212;52.112;5.144;2022-12-17T00:14:19;102187.80;;;-0.52
66403;BMP180;53212;52.112;5.144;2022-12-17T00:17:04;102187.00;;;-0.50
66403;BMP180;53212;52.112;5.144;2022-12-17T00:19:48;102185.60;;;-0.50
66403;BMP180;53212;52.112;5.144;2022-12-17T00:22:32;102188.40;;;-0.50
66403;BMP180;53212;52.112;5.144;2022-12-17T00:25:16;102188.00;;;-0.50
66403;BMP180;53212;52.112;5.144;2022-12-17T00:28:00;102191.00;;;-0.60
66403;BMP180;53212;52.112;5.144;2022-12-17T00:30:51;102183.80;;;-0.50
66403;BMP180;53212;52.112;5.144;2022-12-17T00:33:39;102184.80;;;-0.60
66403;BMP180;53212;52.112;5.144;2022-12-17T00:36:24;102184.20;;;-0.60
66403;BMP180;53212;52.112;5.144;2022-12-17T00:39:09;102182.00;;;-0.60
66403;BMP180;53212;52.112;5.144;2022-12-17T00:42:10;102198.80;;;-0.50
66403;BMP180;53212;52.112;5.144;2022-12-17T00:44:54;102199.20;;;-0.50
66403;BMP180;53212;52.112;5.144;2022-12-17T00:47:38;102198.00;;;-0.50
66403;BMP180;53212;52.112;5.144;2022-12-17T00:50:22;102201.20;;;-0.50
66403;BMP180;53212;52.112;5.144;2022-12-17T00:53:06;102199.80;;;-0.50
66403;BMP180;53212;52.112;5.144;2022-12-17T00:55:50;102201.20;;;-0.52
66403;BMP180;53212;52.112;5.144;2022-12-17T00:58:34;102203.00;;;-0.50
66403;BMP180;53212;52.112;5.144;2022-12-17T01:01:19;102208.00;;;-0.50
66403;BMP180;53212;52.112;5.144;2022-12-17T01:04:03;102211.60;;;-0.52
66403;BMP180;53212;52.112;5.144;2022-12-17T01:06:47;102211.00;;;-0.50
66403;BMP180;53212;52.112;5.144;2022-12-17T01:09:31;102213.60;;;-0.60
66403;BMP180;53212;52.112;5.144;2022-12-17T01:12:15;102212.60;;;-0.60
66403;BMP180;53212;52.112;5.144;2022-12-17T01:14:59;102211.80;;;-0.60
66403;BMP180;53212;52.112;5.144;2022-12-17T01:17:44;102208.00;;;-0.60
66403;BMP180;53212;52.112;5.144;2022-12-17T01:20:28;102208.60;;;-0.58
66403;BMP180;53212;52.112;5.144;2022-12-17T01:23:12;102209.40;;;-0.50
66403;BMP180;53212;52.112;5.144;2022-12-17T01:25:57;102206.20;;;-0.60
66403;BMP180;53212;52.112;5.144;2022-12-17T01:28:41;102206.40;;;-0.60
66403;BMP180;53212;52.112;5.144;2022-12-17T01:31:26;102208.20;;;-0.60
66403;BMP180;53212;52.112;5.144;2022-12-17T01:34:11;102205.20;;;-0.60
66403;BMP180;53212;52.112;5.144;2022-12-17T01:36:55;102206.20;;;-0.60
66403;BMP180;53212;52.112;5.144;2022-12-17T01:39:39;102208.00;;;-0.60
66403;BMP180;53212;52.112;5.144;2022-12-17T01:42:23;102220.60;;;-0.60
66403;BMP180;53212;52.112;5.144;2022-12-17T01:45:13;102229.20;;;-0.60
66403;BMP180;53212;52.112;5.144;2022-12-17T01:48:03;102225.20;;;-0.60
66403;BMP180;53212;52.112;5.144;2022-12-17T01:50:53;102226.80;;;-0.56
66403;BMP180;53212;52.112;5.144;2022-12-17T01:53:47;102225.20;;;-0.60
66403;BMP180;53212;52.112;5.144;2022-12-17T01:56:34;102223.00;;;-0.50
66403;BMP180;53212;52.112;5.144;2022-12-17T01:59:27;102222.80;;;-0.50
66403;BMP180;53212;52.112;5.144;2022-12-17T02:02:15;102227.20;;;-0.56
66403;BMP180;53212;52.112;5.144;2022-12-17T02:04:59;102226.60;;;-0.60
66403;BMP180;53212;52.112;5.144;2022-12-17T02:14:32;102236.20;;;-0.62
66403;BMP180;53212;52.112;5.144;2022-12-17T02:17:23;102235.80;;;-0.60
66403;BMP180;53212;52.112;5.144;2022-12-17T02:20:38;102238.80;;;-0.62
66403;BMP180;53212;52.112;5.144;2022-12-17T02:26:45;102235.60;;;-0.70
66403;BMP180;53212;52.112;5.144;2022-12-17T02:29:35;102235.20;;;-0.64
66403;BMP180;53212;52.112;5.144;2022-12-17T02:32:21;102240.60;;;-0.60
66403;BMP180;53212;52.112;5.144;2022-12-17T02:35:14;102239.60;;;-0.66
66403;BMP180;53212;52.112;5.144;2022-12-17T02:37:59;102242.00;;;-0.70
66403;BMP180;53212;52.112;5.144;2022-12-17T02:40:45;102247.20;;;-0.70
66403;BMP180;53212;52.112;5.144;2022-12-17T02:43:31;102245.00;;;-0.70
66403;BMP180;53212;52.112;5.144;2022-12-17T02:46:17;102246.60;;;-0.70
66403;BMP180;53212;52.112;5.144;2022-12-17T02:49:03;102246.00;;;-0.68
66403;BMP180;53212;52.112;5.144;2022-12-17T02:51:48;102251.20;;;-0.70
66403;BMP180;53212;52.112;5.144;2022-12-17T02:54:33;102255.60;;;-0.70
66403;BMP180;53212;52.112;5.144;2022-12-17T02:57:19;102258.80;;;-0.70
66403;BMP180;53212;52.112;5.144;2022-12-17T03:00:05;102263.80;;;-0.70
66403;BMP180;53212;52.112;5.144;2022-12-17T03:02:49;102262.80;;;-0.70
66403;BMP180;53212;52.112;5.144;2022-12-17T03:05:33;102261.40;;;-0.70
66403;BMP180;53212;52.112;5.144;2022-12-17T03:08:17;102259.80;;;-0.70
66403;BMP180;53212;52.112;5.144;2022-12-17T03:11:01;102261.80;;;-0.60
66403;BMP180;53212;52.112;5.144;2022-12-17T03:13:45;102260.80;;;-0.60
66403;BMP180;53212;52.112;5.144;2022-12-17T03:16:29;102264.40;;;-0.52
66403;BMP180;53212;52.112;5.144;2022-12-17T03:19:13;102257.80;;;-0.50
66403;BMP180;53212;52.112;5.144;2022-12-17T03:21:57;102262.80;;;-0.50
66403;BMP180;53212;52.112;5.144;2022-12-17T03:24:41;102263.60;;;-0.60
66403;BMP180;53212;52.112;5.144;2022-12-17T03:27:25;102264.80;;;-0.60
66403;BMP180;53212;52.112;5.144;2022-12-17T03:30:10;102267.40;;;-0.60
66403;BMP180;53212;52.112;5.144;2022-12-17T03:32:54;102272.00;;;-0.60
66403;BMP180;53212;52.112;5.144;2022-12-17T03:35:38;102268.40;;;-0.60
66403;BMP180;53212;52.112;5.144;2022-12-17T03:38:22;102272.20;;;-0.70
66403;BMP180;53212;52.112;5.144;2022-12-17T03:41:06;102272.80;;;-0.70
66403;BMP180;53212;52.112;5.144;2022-12-17T03:43:50;102269.20;;;-0.74
66403;BMP180;53212;52.112;5.144;2022-12-17T03:46:35;102272.20;;;-0.80
66403;BMP180;53212;52.112;5.144;2022-12-17T03:49:18;102268.80;;;-0.80
66403;BMP180;53212;52.112;5.144;2022-12-17T03:52:02;102273.80;;;-0.80
66403;BMP180;53212;52.112;5.144;2022-12-17T03:55:03;102279.60;;;-0.80
66403;BMP180;53212;52.112;5.144;2022-12-17T03:57:48;102277.80;;;-0.80
66403;BMP180;53212;52.112;5.144;2022-12-17T04:00:32;102276.80;;;-0.88
66403;BMP180;53212;52.112;5.144;2022-12-17T04:03:30;102267.00;;;-0.90
66403;BMP180;53212;52.112;5.144;2022-12-17T04:06:14;102277.60;;;-0.80
66403;BMP180;53212;52.112;5.144;2022-12-17T04:08:58;102278.60;;;-0.80
66403;BMP180;53212;52.112;5.144;2022-12-17T04:11:42;102286.40;;;-0.80
66403;BMP180;53212;52.112;5.144;2022-12-17T04:14:26;102289.20;;;-0.80
66403;BMP180;53212;52.112;5.144;2022-12-17T04:17:10;102290.60;;;-0.80
66403;BMP180;53212;52.112;5.144;2022-12-17T04:19:54;102293.00;;;-0.80
66403;BMP180;53212;52.112;5.144;2022-12-17T04:22:38;102299.00;;;-0.80
66403;BMP180;53212;52.112;5.144;2022-12-17T04:25:22;102302.00;;;-0.80
66403;BMP180;53212;52.112;5.144;2022-12-17T04:28:06;102304.20;;;-0.80
66403;BMP180;53212;52.112;5.144;2022-12-17T04:30:50;102305.20;;;-0.80
66403;BMP180;53212;52.112;5.144;2022-12-17T04:33:34;102305.80;;;-0.80
66403;BMP180;53212;52.112;5.144;2022-12-17T04:36:18;102306.20;;;-0.80
66403;BMP180;53212;52.112;5.144;2022-12-17T04:39:03;102308.20;;;-0.80
66403;BMP180;53212;52.112;5.144;2022-12-17T04:41:47;102308.40;;;-0.80
66403;BMP180;53212;52.112;5.144;2022-12-17T04:44:31;102304.80;;;-0.80
66403;BMP180;53212;52.112;5.144;2022-12-17T04:47:15;102305.40;;;-0.80
66403;BMP180;53212;52.112;5.144;2022-12-17T04:50:19;102309.20;;;-0.90
66403;BMP180;53212;52.112;5.144;2022-12-17T04:53:05;102316.20;;;-0.90
66403;BMP180;53212;52.112;5.144;2022-12-17T04:55:50;102321.80;;;-0.92
66403;BMP180;53212;52.112;5.144;2022-12-17T04:58:34;102319.80;;;-0.94
66403;BMP180;53212;52.112;5.144;2022-12-17T05:01:18;102320.20;;;-1.00
66403;BMP180;53212;52.112;5.144;2022-12-17T05:04:03;102321.80;;;-0.92
66403;BMP180;53212;52.112;5.144;2022-12-17T05:06:47;102321.00;;;-0.90
66403;BMP180;53212;52.112;5.144;2022-12-17T05:09:31;102325.40;;;-0.90
66403;BMP180;53212;52.112;5.144;2022-12-17T05:12:15;102317.60;;;-0.90
66403;BMP180;53212;52.112;5.144;2022-12-17T05:14:59;102321.20;;;-0.90
66403;BMP180;53212;52.112;5.144;2022-12-17T05:17:43;102315.60;;;-0.92
66403;BMP180;53212;52.112;5.144;2022-12-17T05:20:28;102318.60;;;-0.94
66403;BMP180;53212;52.112;5.144;2022-12-17T05:23:12;102321.60;;;-0.90
66403;BMP180;53212;52.112;5.144;2022-12-17T05:26:19;102318.60;;;-0.90
66403;BMP180;53212;52.112;5.144;2022-12-17T05:29:03;102324.40;;;-0.90
66403;BMP180;53212;52.112;5.144;2022-12-17T05:31:49;102324.40;;;-0.90
66403;BMP180;53212;52.112;5.144;2022-12-17T05:34:33;102318.00;;;-0.90
66403;BMP180;53212;52.112;5.144;2022-12-17T05:37:16;102316.80;;;-0.90
66403;BMP180;53212;52.112;5.144;2022-12-17T05:40:01;102319.60;;;-0.90
66403;BMP180;53212;52.112;5.144;2022-12-17T05:43:04;102312.40;;;-0.90
66403;BMP180;53212;52.112;5.144;2022-12-17T05:45:49;102307.00;;;-0.90
66403;BMP180;53212;52.112;5.144;2022-12-17T05:48:34;102309.20;;;-0.90
66403;BMP180;53212;52.112;5.144;2022-12-17T05:51:19;102301.60;;;-0.90
66403;BMP180;53212;52.112;5.144;2022-12-17T05:54:03;102306.80;;;-0.90
66403;BMP180;53212;52.112;5.144;2022-12-17T05:56:48;102305.40;;;-0.90
66403;BMP180;53212;52.112;5.144;2022-12-17T05:59:32;102316.60;;;-0.90
66403;BMP180;53212;52.112;5.144;2022-12-17T06:02:16;102321.60;;;-0.90
66403;BMP180;53212;52.112;5.144;2022-12-17T06:05:00;102322.40;;;-0.90
66403;BMP180;53212;52.112;5.144;2022-12-17T06:07:45;102317.40;;;-0.90
66403;BMP180;53212;52.112;5.144;2022-12-17T06:10:29;102317.40;;;-0.90
66403;BMP180;53212;52.112;5.144;2022-12-17T06:13:13;102312.00;;;-0.90
66403;BMP180;53212;52.112;5.144;2022-12-17T06:15:57;102317.80;;;-0.90
66403;BMP180;53212;52.112;5.144;2022-12-17T06:18:41;102333.80;;;-0.90
66403;BMP180;53212;52.112;5.144;2022-12-17T06:21:25;102328.40;;;-0.90
66403;BMP180;53212;52.112;5.144;2022-12-17T06:24:09;102331.20;;;-0.90
66403;BMP180;53212;52.112;5.144;2022-12-17T06:26:53;102335.20;;;-0.90
66403;BMP180;53212;52.112;5.144;2022-12-17T06:29:37;102335.80;;;-0.80
66403;BMP180;53212;52.112;5.144;2022-12-17T06:32:21;102347.40;;;-0.80
66403;BMP180;53212;52.112;5.144;2022-12-17T06:35:05;102344.80;;;-0.82
66403;BMP180;53212;52.112;5.144;2022-12-17T06:38:05;102348.00;;;-0.84
66403;BMP180;53212;52.112;5.144;2022-12-17T06:40:51;102350.20;;;-0.80
66403;BMP180;53212;52.112;5.144;2022-12-17T06:43:35;102350.20;;;-0.80
66403;BMP180;53212;52.112;5.144;2022-12-17T06:46:20;102359.00;;;-0.80
66403;BMP180;53212;52.112;5.144;2022-12-17T06:49:04;102358.20;;;-0.88
66403;BMP180;53212;52.112;5.144;2022-12-17T06:51:48;102356.80;;;-0.80
66403;BMP180;53212;52.112;5.144;2022-12-17T06:54:32;102356.80;;;-0.80
66403;BMP180;53212;52.112;5.144;2022-12-17T06:57:16;102355.60;;;-0.80
66403;BMP180;53212;52.112;5.144;2022-12-17T07:00:00;102357.00;;;-0.90
66403;BMP180;53212;52.112;5.144;2022-12-17T07:02:44;102364.80;;;-0.90
66403;BMP180;53212;52.112;5.144;2022-12-17T07:05:28;102367.60;;;-0.90
66403;BMP180;53212;52.112;5.144;2022-12-17T07:08:12;102363.80;;;-0.84
66403;BMP180;53212;52.112;5.144;2022-12-17T07:11:00;102358.80;;;-0.88
66403;BMP180;53212;52.112;5.144;2022-12-17T07:13:45;102364.60;;;-0.90
66403;BMP180;53212;52.112;5.144;2022-12-17T07:16:29;102377.60;;;-0.90
66403;BMP180;53212;52.112;5.144;2022-12-17T07:19:13;102376.80;;;-0.80
66403;BMP180;53212;52.112;5.144;2022-12-17T07:21:57;102378.20;;;-0.84
66403;BMP180;53212;52.112;5.144;2022-12-17T07:24:41;102378.60;;;-0.80
66403;BMP180;53212;52.112;5.144;2022-12-17T07:27:25;102374.00;;;-0.82
66403;BMP180;53212;52.112;5.144;2022-12-17T07:30:11;102390.40;;;-0.80
66403;BMP180;53212;52.112;5.144;2022-12-17T07:33:01;102388.80;;;-0.80
66403;BMP180;53212;52.112;5.144;2022-12-17T07:35:45;102392.20;;;-0.80
66403;BMP180;53212;52.112;5.144;2022-12-17T07:38:29;102395.80;;;-0.80
66403;BMP180;53212;52.112;5.144;2022-12-17T07:41:14;102403.00;;;-0.80
66403;BMP180;53212;52.112;5.144;2022-12-17T07:43:58;102409.80;;;-0.80
66403;BMP180;53212;52.112;5.144;2022-12-17T07:46:42;102422.40;;;-0.82
66403;BMP180;53212;52.112;5.144;2022-12-17T07:49:26;102421.80;;;-0.90
66403;BMP180;53212;52.112;5.144;2022-12-17T07:52:10;102426.60;;;-0.86
66403;BMP180;53212;52.112;5.144;2022-12-17T07:54:54;102426.60;;;-0.90
66403;BMP180;53212;52.112;5.144;2022-12-17T07:57:38;102433.60;;;-0.80
66403;BMP180;53212;52.112;5.144;2022-12-17T08:00:22;102430.80;;;-0.80
66403;BMP180;53212;52.112;5.144;2022-12-17T08:03:06;102437.40;;;-0.80
66403;BMP180;53212;52.112;5.144;2022-12-17T08:05:50;102437.80;;;-0.80
66403;BMP180;53212;52.112;5.144;2022-12-17T08:08:34;102444.60;;;-0.80
66403;BMP180;53212;52.112;5.144;2022-12-17T08:11:19;102444.60;;;-0.80
66403;BMP180;53212;52.112;5.144;2022-12-17T08:14:03;102445.20;;;-0.80
66403;BMP180;53212;52.112;5.144;2022-12-17T08:16:47;102448.60;;;-0.80
66403;BMP180;53212;52.112;5.144;2022-12-17T08:19:32;102456.20;;;-0.70
66403;BMP180;53212;52.112;5.144;2022-12-17T08:22:16;102457.80;;;-0.70
66403;BMP180;53212;52.112;5.144;2022-12-17T08:25:00;102458.20;;;-0.60
66403;BMP180;53212;52.112;5.144;2022-12-17T08:27:44;102456.60;;;-0.60
66403;BMP180;53212;52.112;5.144;2022-12-17T08:30:28;102454.80;;;-0.50
66403;BMP180;53212;52.112;5.144;2022-12-17T08:33:12;102461.00;;;-0.50
66403;BMP180;53212;52.112;5.144;2022-12-17T08:35:57;102461.00;;;-0.50
66403;BMP180;53212;52.112;5.144;2022-12-17T08:38:44;102467.80;;;-0.50
66403;BMP180;53212;52.112;5.144;2022-12-17T08:41:28;102460.60;;;-0.40
66403;BMP180;53212;52.112;5.144;2022-12-17T08:44:12;102458.40;;;-0.40
66403;BMP180;53212;52.112;5.144;2022-12-17T08:46:56;102460.60;;;-0.40
66403;BMP180;53212;52.112;5.144;2022-12-17T08:49:40;102457.00;;;-0.50
66403;BMP180;53212;52.112;5.144;2022-12-17T08:52:24;102460.20;;;-0.60
66403;BMP180;53212;52.112;5.144;2022-12-17T08:55:09;102465.00;;;-0.60
66403;BMP180;53212;52.112;5.144;2022-12-17T08:57:55;102471.00;;;-0.60
66403;BMP180;53212;52.112;5.144;2022-12-17T09:00:40;102477.00;;;-0.68
66403;BMP180;53212;52.112;5.144;2022-12-17T09:03:24;102482.00;;;-0.70
66403;BMP180;53212;52.112;5.144;2022-12-17T09:06:09;102485.80;;;-0.68
66403;BMP180;53212;52.112;5.144;2022-12-17T09:08:54;102487.40;;;-0.60
66403;BMP180;53212;52.112;5.144;2022-12-17T09:11:39;102491.80;;;-0.56
66403;BMP180;53212;52.112;5.144;2022-12-17T09:14:23;102489.80;;;-0.50
66403;BMP180;53212;52.112;5.144;2022-12-17T09:17:07;102494.60;;;-0.40
66403;BMP180;53212;52.112;5.144;2022-12-17T09:19:51;102492.40;;;-0.40
66403;BMP180;53212;52.112;5.144;2022-12-17T09:22:35;102497.80;;;-0.32
66403;BMP180;53212;52.112;5.144;2022-12-17T09:25:20;102499.00;;;-0.30
66403;BMP180;53212;52.112;5.144;2022-12-17T09:28:04;102491.20;;;-0.30
66403;BMP180;53212;52.112;5.144;2022-12-17T09:30:47;102497.00;;;-0.30
66403;BMP180;53212;52.112;5.144;2022-12-17T09:33:32;102496.80;;;-0.30
66403;BMP180;53212;52.112;5.144;2022-12-17T09:36:16;102496.20;;;-0.30
66403;BMP180;53212;52.112;5.144;2022-12-17T09:39:00;102499.20;;;-0.20
66403;BMP180;53212;52.112;5.144;2022-12-17T09:41:57;102502.80;;;-0.20
66403;BMP180;53212;52.112;5.144;2022-12-17T09:45:17;102506.20;;;-0.20
66403;BMP180;53212;52.112;5.144;2022-12-17T09:51:25;102501.00;;;-0.10
66403;BMP180;53212;52.112;5.144;2022-12-17T09:54:28;102508.40;;;-0.10
66403;BMP180;53212;52.112;5.144;2022-12-17T09:57:20;102507.80;;;-0.10
66403;BMP180;53212;52.112;5.144;2022-12-17T10:00:21;102508.00;;;0.00
66403;BMP180;53212;52.112;5.144;2022-12-17T10:03:20;102515.40;;;0.00
66403;BMP180;53212;52.112;5.144;2022-12-17T10:06:14;102513.40;;;-0.10
66403;BMP180;53212;52.112;5.144;2022-12-17T10:09:05;102515.20;;;-0.10
66403;BMP180;53212;52.112;5.144;2022-12-17T10:11:52;102518.20;;;0.00
66403;BMP180;53212;52.112;5.144;2022-12-17T10:14:36;102514.80;;;0.00
66403;BMP180;53212;52.112;5.144;2022-12-17T10:17:22;102511.00;;;0.00
66403;BMP180;53212;52.112;5.144;2022-12-17T10:20:32;102511.20;;;0.10
66403;BMP180;53212;52.112;5.144;2022-12-17T10:23:32;102512.40;;;0.20
66403;BMP180;53212;52.112;5.144;2022-12-17T10:26:19;102517.00;;;0.20
66403;BMP180;53212;52.112;5.144;2022-12-17T10:29:17;102524.60;;;0.30
66403;BMP180;53212;52.112;5.144;2022-12-17T10:35:05;102518.60;;;0.40
66403;BMP180;53212;52.112;5.144;2022-12-17T10:37:50;102524.60;;;0.40
66403;BMP180;53212;52.112;5.144;2022-12-17T10:40:34;102519.20;;;0.42
66403;BMP180;53212;52.112;5.144;2022-12-17T10:43:28;102523.40;;;0.50
66403;BMP180;53212;52.112;5.144;2022-12-17T10:46:31;102522.80;;;0.50
66403;BMP180;53212;52.112;5.144;2022-12-17T10:49:18;102525.20;;;0.60
66403;BMP180;53212;52.112;5.144;2022-12-17T10:52:30;102532.60;;;0.68
66403;BMP180;53212;52.112;5.144;2022-12-17T10:55:27;102538.80;;;0.60
66403;BMP180;53212;52.112;5.144;2022-12-17T10:58:28;102537.80;;;0.52
66403;BMP180;53212;52.112;5.144;2022-12-17T11:01:24;102533.20;;;0.50
66403;BMP180;53212;52.112;5.144;2022-12-17T11:04:33;102524.00;;;0.50
66403;BMP180;53212;52.112;5.144;2022-12-17T11:07:40;102522.40;;;0.52
66403;BMP180;53212;52.112;5.144;2022-12-17T11:10:30;102520.20;;;0.60
66403;BMP180;53212;52.112;5.144;2022-12-17T11:13:26;102522.40;;;0.60
66403;BMP180;53212;52.112;5.144;2022-12-17T11:16:26;102521.20;;;0.60
66403;BMP180;53212;52.112;5.144;2022-12-17T11:22:03;102542.40;;;0.70
66403;BMP180;53212;52.112;5.144;2022-12-17T11:25:18;102546.20;;;0.72
66403;BMP180;53212;52.112;5.144;2022-12-17T11:28:18;102543.80;;;0.80
66403;BMP180;53212;52.112;5.144;2022-12-17T11:40:25;102544.00;;;0.86
66403;BMP180;53212;52.112;5.144;2022-12-17T11:49:47;102539.40;;;0.80
66403;BMP180;53212;52.112;5.144;2022-12-17T11:52:56;102543.00;;;0.70
66403;BMP180;53212;52.112;5.144;2022-12-17T12:05:54;102534.00;;;0.70
66403;BMP180;53212;52.112;5.144;2022-12-17T12:21:57;102520.20;;;0.58
66403;BMP180;53212;52.112;5.144;2022-12-17T12:34:24;102514.60;;;0.70
66403;BMP180;53212;52.112;5.144;2022-12-17T12:37:13;102519.60;;;0.60
66403;BMP180;53212;52.112;5.144;2022-12-17T12:40:03;102520.00;;;0.70
66403;BMP180;53212;52.112;5.144;2022-12-17T12:42:59;102527.20;;;0.70
66403;BMP180;53212;52.112;5.144;2022-12-17T12:52:10;102519.40;;;0.60
66403;BMP180;53212;52.112;5.144;2022-12-17T12:54:55;102512.40;;;0.50
66403;BMP180;53212;52.112;5.144;2022-12-17T12:58:01;102511.80;;;0.40
66403;BMP180;53212;52.112;5.144;2022-12-17T13:03:52;102507.00;;;0.50
66403;BMP180;53212;52.112;5.144;2022-12-17T13:09:37;102515.00;;;0.40
66403;BMP180;53212;52.112;5.144;2022-12-17T13:12:18;102511.00;;;0.40
66403;BMP180;53212;52.112;5.144;2022-12-17T13:14:53;102518.60;;;0.44
66403;BMP180;53212;52.112;5.144;2022-12-17T13:17:39;102512.40;;;0.50
66403;BMP180;53212;52.112;5.144;2022-12-17T13:20:25;102515.80;;;0.50
66403;BMP180;53212;52.112;5.144;2022-12-17T13:23:24;102508.80;;;0.50
66403;BMP180;53212;52.112;5.144;2022-12-17T13:28:39;102505.00;;;0.50
66403;BMP180;53212;52.112;5.144;2022-12-17T13:31:16;102504.20;;;0.50
66403;BMP180;53212;52.112;5.144;2022-12-17T13:34:04;102504.60;;;0.50
66403;BMP180;53212;52.112;5.144;2022-12-17T13:42:04;102507.20;;;0.50
66403;BMP180;53212;52.112;5.144;2022-12-17T13:44:42;102500.20;;;0.40
66403;BMP180;53212;52.112;5.144;2022-12-17T13:47:33;102501.20;;;0.30
66403;BMP180;53212;52.112;5.144;2022-12-17T13:50:13;102499.60;;;0.30
66403;BMP180;53212;52.112;5.144;2022-12-17T13:52:42;102496.40;;;0.20
66403;BMP180;53212;52.112;5.144;2022-12-17T13:55:16;102498.80;;;0.14
66403;BMP180;53212;52.112;5.144;2022-12-17T13:57:47;102494.60;;;0.00
66403;BMP180;53212;52.112;5.144;2022-12-17T14:00:22;102494.00;;;-0.10
66403;BMP180;53212;52.112;5.144;2022-12-17T14:02:49;102492.60;;;-0.16
66403;BMP180;53212;52.112;5.144;2022-12-17T14:07:51;102499.20;;;-0.20
66403;BMP180;53212;52.112;5.144;2022-12-17T14:10:17;102503.60;;;-0.20
66403;BMP180;53212;52.112;5.144;2022-12-17T14:12:44;102504.00;;;-0.30
66403;BMP180;53212;52.112;5.144;2022-12-17T14:15:26;102505.80;;;-0.30
66403;BMP180;53212;52.112;5.144;2022-12-17T14:17:56;102510.60;;;-0.38
66403;BMP180;53212;52.112;5.144;2022-12-17T14:20:25;102513.40;;;-0.40
66403;BMP180;53212;52.112;5.144;2022-12-17T14:23:27;102523.40;;;-0.38
66403;BMP180;53212;52.112;5.144;2022-12-17T14:25:53;102526.00;;;-0.32
66403;BMP180;53212;52.112;5.144;2022-12-17T14:28:27;102527.00;;;-0.30
66403;BMP180;53212;52.112;5.144;2022-12-17T14:31:27;102525.00;;;-0.32
66403;BMP180;53212;52.112;5.144;2022-12-17T14:34:08;102527.00;;;-0.30
66403;BMP180;53212;52.112;5.144;2022-12-17T14:36:40;102527.60;;;-0.38
66403;BMP180;53212;52.112;5.144;2022-12-17T14:39:20;102527.60;;;-0.40
66403;BMP180;53212;52.112;5.144;2022-12-17T14:41:47;102535.20;;;-0.40
66403;BMP180;53212;52.112;5.144;2022-12-17T14:44:31;102535.00;;;-0.50
66403;BMP180;53212;52.112;5.144;2022-12-17T14:47:30;102538.80;;;-0.50
66403;BMP180;53212;52.112;5.144;2022-12-17T14:50:05;102538.60;;;-0.50
66403;BMP180;53212;52.112;5.144;2022-12-17T14:52:59;102537.80;;;-0.60
66403;BMP180;53212;52.112;5.144;2022-12-17T14:55:37;102540.80;;;-0.60
66403;BMP180;53212;52.112;5.144;2022-12-17T15:00:55;102541.00;;;-0.60
66403;BMP180;53212;52.112;5.144;2022-12-17T15:03:30;102542.40;;;-0.70
66403;BMP180;53212;52.112;5.144;2022-12-17T15:06:04;102543.80;;;-0.70
66403;BMP180;53212;52.112;5.144;2022-12-17T15:08:42;102542.60;;;-0.80
66403;BMP180;53212;52.112;5.144;2022-12-17T15:11:11;102549.00;;;-0.80
66403;BMP180;53212;52.112;5.144;2022-12-17T15:13:37;102552.80;;;-0.90
66403;BMP180;53212;52.112;5.144;2022-12-17T15:16:02;102556.60;;;-0.90
66403;BMP180;53212;52.112;5.144;2022-12-17T15:18:28;102554.60;;;-0.90
66403;BMP180;53212;52.112;5.144;2022-12-17T15:20:53;102559.60;;;-0.90
66403;BMP180;53212;52.112;5.144;2022-12-17T15:23:21;102554.60;;;-0.90
66403;BMP180;53212;52.112;5.144;2022-12-17T15:25:49;102559.20;;;-1.00
66403;BMP180;53212;52.112;5.144;2022-12-17T15:28:16;102558.60;;;-1.00
66403;BMP180;53212;52.112;5.144;2022-12-17T15:30:43;102571.60;;;-1.06
66403;BMP180;53212;52.112;5.144;2022-12-17T15:33:09;102577.40;;;-1.08
66403;BMP180;53212;52.112;5.144;2022-12-17T15:35:36;102575.40;;;-1.10
66403;BMP180;53212;52.112;5.144;2022-12-17T15:38:03;102579.20;;;-1.10
66403;BMP180;53212;52.112;5.144;2022-12-17T15:40:29;102585.20;;;-1.10
66403;BMP180;53212;52.112;5.144;2022-12-17T15:42:54;102585.00;;;-1.10
66403;BMP180;53212;52.112;5.144;2022-12-17T15:45:46;102586.80;;;-1.10
66403;BMP180;53212;52.112;5.144;2022-12-17T15:48:16;102587.80;;;-1.10
66403;BMP180;53212;52.112;5.144;2022-12-17T15:50:41;102588.80;;;-1.10
66403;BMP180;53212;52.112;5.144;2022-12-17T15:53:07;102602.60;;;-1.18
66403;BMP180;53212;52.112;5.144;2022-12-17T15:55:35;102600.40;;;-1.20
66403;BMP180;53212;52.112;5.144;2022-12-17T15:58:01;102601.80;;;-1.20
66403;BMP180;53212;52.112;5.144;2022-12-17T16:00:26;102601.80;;;-1.30
66403;BMP180;53212;52.112;5.144;2022-12-17T16:02:52;102598.80;;;-1.30
66403;BMP180;53212;52.112;5.144;2022-12-17T16:05:18;102598.80;;;-1.30
66403;BMP180;53212;52.112;5.144;2022-12-17T16:07:45;102600.80;;;-1.30
66403;BMP180;53212;52.112;5.144;2022-12-17T16:10:12;102600.60;;;-1.30
66403;BMP180;53212;52.112;5.144;2022-12-17T16:12:38;102602.40;;;-1.30
66403;BMP180;53212;52.112;5.144;2022-12-17T16:15:05;102601.40;;;-1.30
66403;BMP180;53212;52.112;5.144;2022-12-17T16:17:31;102600.00;;;-1.30
66403;BMP180;53212;52.112;5.144;2022-12-17T16:19:59;102598.80;;;-1.30
66403;BMP180;53212;52.112;5.144;2022-12-17T16:22:26;102603.60;;;-1.30
66403;BMP180;53212;52.112;5.144;2022-12-17T16:24:52;102604.40;;;-1.30
66403;BMP180;53212;52.112;5.144;2022-12-17T16:27:18;102604.00;;;-1.30
66403;BMP180;53212;52.112;5.144;2022-12-17T16:29:46;102605.00;;;-1.30
66403;BMP180;53212;52.112;5.144;2022-12-17T16:32:14;102609.80;;;-1.30
66403;BMP180;53212;52.112;5.144;2022-12-17T16:34:42;102611.20;;;-1.30
66403;BMP180;53212;52.112;5.144;2022-12-17T16:37:09;102616.60;;;-1.30
66403;BMP180;53212;52.112;5.144;2022-12-17T16:39:35;102620.20;;;-1.30
66403;BMP180;53212;52.112;5.144;2022-12-17T16:42:00;102621.40;;;-1.30
66403;BMP180;53212;52.112;5.144;2022-12-17T16:44:26;102617.40;;;-1.40
66403;BMP180;53212;52.112;5.144;2022-12-17T16:46:51;102623.00;;;-1.40
66403;BMP180;53212;52.112;5.144;2022-12-17T16:49:20;102621.20;;;-1.34
66403;BMP180;53212;52.112;5.144;2022-12-17T16:51:49;102620.80;;;-1.30
66403;BMP180;53212;52.112;5.144;2022-12-17T16:54:19;102614.20;;;-1.30
66403;BMP180;53212;52.112;5.144;2022-12-17T16:56:46;102608.20;;;-1.34
66403;BMP180;53212;52.112;5.144;2022-12-17T16:59:14;102603.20;;;-1.40
66403;BMP180;53212;52.112;5.144;2022-12-17T17:01:41;102607.00;;;-1.40
66403;BMP180;53212;52.112;5.144;2022-12-17T17:04:10;102606.40;;;-1.44